Time;durP1;ratioP1;P1;durP2;ratioP2;P2;SDS_P1;SDS_P2;PMS_P1;PMS_P2;Temp;Humidity;BMP_temperature;BMP_pressure;BME280_temperature;BME280_humidity;BME280_pressure;Samples;Min_cycle;Max_cycle;Signal;HPM_P1;HPM_P2
2024/04/10 00:00:33;;;;;;;17.53;3.20;;;8.70;99.90;;;;;;5364706;26;20259;-59
2024/04/10 00:03:05;;;;;;;10.97;2.73;;;8.70;99.90;;;;;;5379547;26;20235;-58
2024/04/10 00:05:32;;;;;;;19.17;3.17;;;8.70;99.90;;;;;;5379073;26;20292;-58
2024/04/10 00:08:06;;;;;;;11.83;2.90;;;8.70;99.90;;;;;;5374317;26;20669;-59
2024/04/10 00:10:33;;;;;;;13.27;2.67;;;8.70;99.30;;;;;;5372970;26;20271;-59
2024/04/10 00:13:03;;;;;;;8.70;3.07;;;8.70;99.60;;;;;;5380392;26;20255;-58
2024/04/10 00:15:31;;;;;;;14.47;3.17;;;8.80;95.60;;;;;;5380989;26;20282;-58
2024/04/10 00:18:02;;;;;;;11.23;3.00;;;8.80;97.10;;;;;;5381137;26;20295;-58
2024/04/10 00:20:30;;;;;;;13.13;3.03;;;8.70;98.70;;;;;;5377065;26;20244;-59
2024/04/10 00:23:01;;;;;;;12.43;3.60;;;8.70;99.70;;;;;;5380887;26;20301;-58
2024/04/10 00:25:31;;;;;;;9.03;3.07;;;8.60;99.90;;;;;;5370526;26;21211;-58
2024/04/10 00:28:06;;;;;;;12.90;3.07;;;8.70;99.90;;;;;;5380505;26;20265;-59
2024/04/10 00:30:35;;;;;;;7.73;2.37;;;8.60;99.90;;;;;;5375253;26;20246;-59
2024/04/10 00:33:06;;;;;;;10.07;3.03;;;8.70;99.00;;;;;;5380551;26;20408;-58
2024/04/10 00:39:22;;;;;;;12.40;2.83;;;8.70;95.80;;;;;;5358158;26;20278;-58
2024/04/10 00:41:52;;;;;;;16.10;2.93;;;8.60;99.80;;;;;;5380795;26;20235;-58
2024/04/10 00:44:22;;;;;;;12.00;2.80;;;8.70;95.70;;;;;;5369868;26;20705;-58
2024/04/10 00:46:50;;;;;;;11.47;3.13;;;8.70;93.80;;;;;;5376468;26;20266;-58
2024/04/10 00:49:21;;;;;;;11.90;3.00;;;8.70;96.10;;;;;;5380648;26;20332;-59
2024/04/10 00:51:50;;;;;;;11.27;2.90;;;8.60;99.40;;;;;;5378640;26;20296;-59
2024/04/10 00:54:20;;;;;;;10.67;2.80;;;8.50;99.90;;;;;;5370179;26;20256;-59
2024/04/10 00:56:48;;;;;;;7.47;2.60;;;8.50;99.90;;;;;;5365429;26;20287;-59
2024/04/10 00:59:21;;;;;;;17.20;3.27;;;8.50;99.90;;;;;;5366389;26;20240;-58
2024/04/10 01:01:48;;;;;;;9.17;2.93;;;8.50;99.90;;;;;;5372831;26;20302;-58
2024/04/10 01:04:18;;;;;;;18.97;3.50;;;8.50;99.90;;;;;;5348271;26;20816;-58
2024/04/10 01:10:14;;;;;;;10.33;2.63;;;8.50;99.90;;;;;;5378072;26;20262;-59
2024/04/10 01:13:01;;;;;;;14.00;3.00;;;8.50;99.90;;;;;;5361262;26;20303;-60
2024/04/10 01:15:34;;;;;;;11.23;3.17;;;8.50;99.90;;;;;;5370770;26;20706;-58
2024/04/10 01:18:02;;;;;;;13.47;3.10;;;8.40;99.90;;;;;;5370912;26;20244;-58
2024/04/10 01:20:32;;;;;;;14.47;3.40;;;8.40;99.90;;;;;;5365330;26;20248;-59
2024/04/10 01:23:04;;;;;;;14.90;4.33;;;8.40;99.90;;;;;;5368332;26;20771;-58
2024/04/10 01:25:34;;;;;;;7.70;3.00;;;8.40;99.90;;;;;;5367610;26;20813;-58
2024/04/10 01:28:02;;;;;;;7.83;3.03;;;8.30;99.90;;;;;;5376445;26;20266;-58
2024/04/10 01:30:33;;;;;;;14.83;3.03;;;8.30;99.90;;;;;;5379733;26;20325;-58
2024/04/10 01:33:01;;;;;;;13.17;2.70;;;8.20;99.90;;;;;;5356032;26;20262;-59
2024/04/10 01:35:31;;;;;;;10.10;2.93;;;8.20;99.90;;;;;;5370747;26;20270;-59
2024/04/10 01:38:02;;;;;;;13.93;3.33;;;8.20;99.90;;;;;;5373658;26;20273;-58
2024/04/10 01:40:32;;;;;;;8.13;2.40;;;8.10;99.90;;;;;;5371490;26;20259;-58
2024/04/10 01:43:00;;;;;;;15.37;3.07;;;8.10;99.90;;;;;;5377870;26;20256;-58
2024/04/10 01:48:56;;;;;;;11.23;2.80;;;8.20;99.90;;;;;;5369419;26;20260;-58
2024/04/10 01:51:24;;;;;;;9.30;2.77;;;8.20;99.90;;;;;;5381677;26;20608;-58
2024/04/10 01:53:57;;;;;;;6.73;2.83;;;8.10;99.90;;;;;;5365106;26;20271;-58
2024/04/10 01:56:24;;;;;;;10.90;3.13;;;8.10;99.90;;;;;;5372455;26;20278;-58
2024/04/10 01:58:55;;;;;;;8.50;2.67;;;8.20;99.90;;;;;;5361078;26;20323;-58
2024/04/10 02:01:22;;;;;;;13.27;3.00;;;8.10;99.90;;;;;;5362759;26;20264;-59
2024/04/10 02:03:53;;;;;;;12.20;3.20;;;8.10;99.90;;;;;;5354958;26;20327;-59
2024/04/10 02:06:20;;;;;;;10.33;2.57;;;8.00;99.90;;;;;;5382541;26;20768;-58
2024/04/10 02:08:51;;;;;;;15.63;3.30;;;8.00;99.90;;;;;;5382697;26;20291;-59
2024/04/10 02:11:25;;;;;;;15.27;3.30;;;8.00;99.90;;;;;;5373215;26;20258;-58
2024/04/10 02:13:56;;;;;;;14.10;3.13;;;8.00;99.90;;;;;;5382057;26;20258;-58
2024/04/10 02:16:24;;;;;;;11.03;3.20;;;7.90;99.90;;;;;;5374520;26;20733;-58
2024/04/10 02:18:56;;;;;;;11.60;3.10;;;7.90;99.90;;;;;;5373321;26;20720;-59
2024/04/10 02:21:24;;;;;;;11.67;3.17;;;7.90;99.90;;;;;;5376227;26;20343;-58
2024/04/10 02:23:54;;;;;;;9.07;3.00;;;7.90;99.90;;;;;;5360592;26;20343;-59
2024/04/10 02:26:24;;;;;;;12.83;3.30;;;7.90;99.90;;;;;;5382869;26;20295;-59
2024/04/10 02:28:55;;;;;;;13.00;3.03;;;7.80;99.90;;;;;;5382418;26;20259;-58
2024/04/10 02:31:22;;;;;;;9.67;2.73;;;7.80;99.90;;;;;;5382074;26;20259;-58
2024/04/10 02:33:53;;;;;;;10.63;3.10;;;7.80;99.90;;;;;;5374080;26;20259;-58
2024/04/10 02:36:20;;;;;;;14.33;3.10;;;7.80;99.90;;;;;;5410135;26;20311;-58
2024/04/10 02:38:51;;;;;;;6.60;2.73;;;7.80;99.90;;;;;;5369231;26;20282;-58
2024/04/10 02:41:19;;;;;;;14.80;3.67;;;7.70;99.90;;;;;;5370644;26;20239;-58
2024/04/10 02:43:52;;;;;;;6.70;2.87;;;7.70;99.90;;;;;;5382086;26;20259;-58
2024/04/10 02:46:20;;;;;;;14.20;2.90;;;7.70;99.90;;;;;;5382173;26;20259;-58
2024/04/10 02:48:50;;;;;;;15.00;3.10;;;7.70;99.90;;;;;;5381412;26;20259;-58
2024/04/10 02:51:17;;;;;;;3.90;2.63;;;7.70;99.90;;;;;;5379644;26;20307;-58
2024/04/10 02:53:47;;;;;;;10.33;3.17;;;7.70;99.90;;;;;;5381769;26;20702;-58
2024/04/10 02:56:15;;;;;;;13.17;3.40;;;7.60;99.90;;;;;;5382281;26;20255;-59
2024/04/10 02:58:45;;;;;;;9.47;2.97;;;7.60;99.90;;;;;;5354577;26;20260;-58
2024/04/10 03:01:16;;;;;;;12.63;3.20;;;7.60;99.90;;;;;;5367163;26;20578;-58
2024/04/10 03:03:46;;;;;;;15.00;3.17;;;7.60;99.90;;;;;;5381758;26;20675;-58
2024/04/10 03:06:14;;;;;;;10.43;3.20;;;7.60;99.90;;;;;;5377920;26;20358;-58
2024/04/10 03:08:45;;;;;;;15.97;3.40;;;7.60;99.90;;;;;;5381312;26;20273;-58
2024/04/10 03:11:16;;;;;;;13.57;3.93;;;7.60;99.90;;;;;;5358809;26;20624;-58
2024/04/10 03:13:47;;;;;;;12.47;3.30;;;7.60;99.90;;;;;;5346899;26;21186;-59
2024/04/10 03:16:17;;;;;;;12.57;3.10;;;7.60;99.90;;;;;;5438629;26;20311;-58
2024/04/10 03:18:47;;;;;;;13.60;3.60;;;7.60;99.90;;;;;;5376204;26;20285;-58
2024/04/10 03:21:15;;;;;;;11.13;3.33;;;7.50;99.90;;;;;;5365728;26;20657;-58
2024/04/10 03:23:45;;;;;;;11.53;3.67;;;7.50;99.90;;;;;;5357296;26;20273;-58
2024/04/10 03:26:13;;;;;;;8.60;2.97;;;7.50;99.90;;;;;;5364475;26;20268;-58
2024/04/10 03:28:43;;;;;;;13.07;3.33;;;7.50;99.90;;;;;;5381345;26;20290;-58
2024/04/10 03:31:12;;;;;;;12.53;3.83;;;7.50;99.90;;;;;;5379797;26;20266;-58
2024/04/10 03:33:45;;;;;;;11.20;2.87;;;7.60;99.90;;;;;;5381048;26;20307;-58
2024/04/10 03:36:13;;;;;;;13.57;3.03;;;7.50;99.90;;;;;;5362396;26;20263;-59
2024/04/10 03:38:43;;;;;;;13.63;3.40;;;7.50;99.90;;;;;;5375470;26;20271;-58
2024/04/10 03:41:10;;;;;;;13.20;3.30;;;7.50;99.90;;;;;;5358033;26;20295;-58
2024/04/10 03:43:41;;;;;;;13.00;2.97;;;7.40;99.90;;;;;;5396996;26;20755;-59
2024/04/10 03:46:14;;;;;;;11.03;3.30;;;7.40;99.90;;;;;;5356754;26;20809;-59
2024/04/10 03:48:48;;;;;;;10.73;3.37;;;7.40;99.90;;;;;;5368432;26;20331;-59
2024/04/10 03:51:19;;;;;;;8.37;3.10;;;7.30;99.90;;;;;;5375648;26;20260;-59
2024/04/10 03:53:47;;;;;;;9.83;2.97;;;7.40;99.90;;;;;;5371465;26;20279;-59
2024/04/10 03:56:17;;;;;;;12.07;3.47;;;7.40;99.90;;;;;;5330574;26;20704;-58
2024/04/10 03:58:48;;;;;;;11.50;3.33;;;7.30;99.90;;;;;;5341379;26;20257;-58
2024/04/10 04:01:19;;;;;;;11.57;3.30;;;7.30;99.90;;;;;;5351801;26;20293;-59
2024/04/10 04:03:49;;;;;;;11.20;3.00;;;7.30;99.90;;;;;;5341746;26;20308;-59
2024/04/10 04:06:20;;;;;;;9.97;3.00;;;7.20;99.90;;;;;;5340951;26;20256;-59
2024/04/10 04:08:47;;;;;;;8.50;2.90;;;7.20;99.90;;;;;;5345147;26;20948;-58
2024/04/10 04:11:17;;;;;;;13.43;3.67;;;7.20;99.90;;;;;;5343461;26;20240;-58
2024/04/10 04:13:48;;;;;;;9.37;3.23;;;7.20;99.90;;;;;;5396108;26;20263;-60
2024/04/10 04:16:18;;;;;;;15.70;3.30;;;7.20;99.90;;;;;;5366583;26;20307;-58
2024/04/10 04:18:53;;;;;;;9.83;3.17;;;7.20;99.90;;;;;;5357301;26;20260;-59
2024/04/10 04:21:22;;;;;;;6.37;2.60;;;7.10;99.90;;;;;;5343797;26;20316;-59
2024/04/10 04:23:53;;;;;;;10.87;3.13;;;7.10;99.90;;;;;;5346466;26;20601;-59
2024/04/10 04:26:20;;;;;;;10.10;3.43;;;7.10;99.90;;;;;;5332501;26;20280;-58
2024/04/10 04:28:54;;;;;;;6.43;2.63;;;7.00;99.90;;;;;;5345869;26;20319;-58
2024/04/10 04:31:22;;;;;;;8.97;2.97;;;6.90;99.90;;;;;;5332101;26;20264;-59
2024/04/10 04:33:55;;;;;;;9.23;2.90;;;6.90;99.90;;;;;;5351036;26;20255;-59
2024/04/10 04:36:23;;;;;;;10.77;3.07;;;6.90;99.90;;;;;;5349601;26;20260;-58
2024/04/10 04:38:56;;;;;;;9.07;2.60;;;6.80;99.90;;;;;;5357436;26;20243;-59
2024/04/10 04:41:23;;;;;;;7.27;3.23;;;6.80;99.90;;;;;;5336855;26;20594;-58
2024/04/10 04:44:31;;;;;;;12.37;3.47;;;6.80;99.90;;;;;;5345289;26;20257;-58
2024/04/10 04:47:20;;;;;;;7.43;2.90;;;6.80;99.90;;;;;;5342905;26;20267;-58
2024/04/10 04:49:53;;;;;;;9.93;3.23;;;6.90;99.90;;;;;;5323117;26;20340;-59
2024/04/10 04:52:21;;;;;;;16.33;3.40;;;6.90;99.90;;;;;;5372762;26;20349;-58
2024/04/10 04:54:51;;;;;;;10.30;3.30;;;6.90;99.90;;;;;;5346509;26;20256;-58
2024/04/10 04:57:19;;;;;;;12.83;3.70;;;6.90;99.90;;;;;;5370236;26;20304;-59
2024/04/10 04:59:49;;;;;;;7.60;3.27;;;6.90;99.90;;;;;;5323381;26;20284;-59
2024/04/10 05:02:17;;;;;;;10.87;3.70;;;6.90;99.90;;;;;;5368222;26;20756;-59
2024/04/10 05:05:02;;;;;;;13.43;3.10;;;6.90;99.90;;;;;;5362750;26;20350;-58
2024/04/10 05:07:33;;;;;;;12.17;3.00;;;6.90;99.90;;;;;;5358858;26;20291;-58
2024/04/10 05:10:03;;;;;;;9.33;3.30;;;7.00;99.90;;;;;;5380021;26;20304;-58
2024/04/10 05:12:32;;;;;;;12.53;3.40;;;7.00;99.90;;;;;;5379619;26;20284;-59
2024/04/10 05:15:02;;;;;;;10.17;3.13;;;7.00;99.90;;;;;;5369819;26;20309;-59
2024/04/10 05:17:29;;;;;;;10.60;2.77;;;7.10;99.90;;;;;;5383247;26;20718;-59
2024/04/10 05:20:00;;;;;;;8.90;3.20;;;7.10;99.90;;;;;;5383002;26;20259;-59
2024/04/10 05:22:28;;;;;;;12.03;3.43;;;7.10;99.90;;;;;;5383593;26;20256;-58
2024/04/10 05:25:00;;;;;;;15.50;3.60;;;7.10;99.90;;;;;;5383088;26;20274;-58
2024/04/10 05:27:28;;;;;;;10.40;3.00;;;7.20;99.90;;;;;;5383428;26;20255;-58
2024/04/10 05:29:59;;;;;;;12.63;3.10;;;7.20;99.90;;;;;;5377186;26;20239;-59
2024/04/10 05:32:27;;;;;;;18.00;3.30;;;7.20;99.90;;;;;;5381463;26;20227;-59
2024/04/10 05:35:00;;;;;;;15.13;3.87;;;7.20;99.90;;;;;;5362526;26;20602;-58
2024/04/10 05:37:27;;;;;;;15.43;3.33;;;7.20;99.90;;;;;;5383278;26;20289;-58
2024/04/10 05:40:09;;;;;;;9.73;3.20;;;7.30;99.90;;;;;;5383025;26;20293;-58
2024/04/10 05:46:05;;;;;;;7.40;2.80;;;7.60;99.90;;;;;;5369607;26;20286;-58
2024/04/10 05:48:33;;;;;;;12.10;3.40;;;7.90;99.90;;;;;;5379773;26;20303;-58
2024/04/10 05:51:03;;;;;;;9.07;2.90;;;8.10;99.90;;;;;;5376891;26;20275;-58
2024/04/10 05:53:33;;;;;;;9.00;3.27;;;8.40;99.90;;;;;;5359976;26;20601;-58
2024/04/10 05:56:07;;;;;;;13.73;2.90;;;8.60;92.00;;;;;;5381426;26;20263;-58
2024/04/10 06:02:01;;;;;;;9.97;3.03;;;9.00;24.30;;;;;;5366516;26;20342;-59
2024/04/10 06:04:29;;;;;;;12.53;3.10;;;9.20;13.80;;;;;;5365941;26;20293;-61
2024/04/10 06:06:59;;;;;;;8.40;2.80;;;9.40;1.00;;;;;;5359903;26;20339;-61
2024/04/10 06:09:27;;;;;;;10.67;3.17;;;9.50;1.00;;;;;;5365314;26;20293;-61
2024/04/10 06:12:00;;;;;;;11.17;2.93;;;9.60;1.00;;;;;;5370872;26;20235;-61
2024/04/10 06:14:28;;;;;;;14.07;2.97;;;9.60;1.00;;;;;;5363440;26;20285;-61
2024/04/10 06:16:58;;;;;;;10.00;2.80;;;9.80;1.00;;;;;;5394105;26;20942;-61
2024/04/10 06:19:25;;;;;;;7.20;2.70;;;9.90;1.00;;;;;;5358057;26;20332;-61
2024/04/10 06:21:55;;;;;;;11.20;3.30;;;10.10;1.00;;;;;;5358902;26;20260;-61
2024/04/10 06:24:23;;;;;;;11.43;3.00;;;10.30;1.00;;;;;;5356792;26;20318;-61
2024/04/10 06:26:53;;;;;;;15.10;3.00;;;10.50;1.00;;;;;;5357597;26;20723;-62
2024/04/10 06:29:23;;;;;;;9.10;2.80;;;10.80;1.00;;;;;;5353542;26;20244;-61
2024/04/10 06:31:54;;;;;;;7.83;2.83;;;11.00;1.00;;;;;;5366504;26;20264;-61
2024/04/10 06:34:22;;;;;;;7.63;3.20;;;11.20;1.00;;;;;;5359686;26;20253;-61
2024/04/10 06:36:52;;;;;;;8.77;3.13;;;11.30;1.00;;;;;;5361056;26;21395;-61
2024/04/10 06:39:20;;;;;;;10.93;2.73;;;11.50;1.00;;;;;;5364373;26;20633;-61
2024/04/10 06:41:50;;;;;;;5.70;2.30;;;11.70;1.00;;;;;;5355772;26;20236;-61
2024/04/10 06:44:20;;;;;;;9.93;2.80;;;11.80;1.00;;;;;;5361931;26;20587;-61
2024/04/10 06:46:51;;;;;;;10.63;2.70;;;11.90;99.90;;;;;;5354288;26;20324;-61
2024/04/10 06:49:21;;;;;;;12.70;2.83;;;11.90;99.90;;;;;;5356034;26;20268;-61
2024/04/10 06:51:49;;;;;;;9.90;3.20;;;11.90;99.90;;;;;;5359825;26;20263;-61
2024/04/10 06:54:21;;;;;;;11.47;3.10;;;12.10;99.90;;;;;;5365768;26;20642;-61
2024/04/10 06:56:48;;;;;;;6.17;2.87;;;12.10;99.90;;;;;;5362017;26;20247;-62
2024/04/10 06:59:18;;;;;;;9.13;2.77;;;12.30;99.90;;;;;;5357395;26;20247;-61
2024/04/10 07:01:46;;;;;;;11.43;3.17;;;12.70;99.90;;;;;;5366254;26;20294;-61
2024/04/10 07:04:20;;;;;;;12.43;3.07;;;12.80;30.70;;;;;;5354518;26;20251;-61
2024/04/10 07:06:49;;;;;;;9.17;3.27;;;12.90;99.90;;;;;;5351036;26;20308;-62
2024/04/10 07:09:19;;;;;;;12.53;2.70;;;13.00;1.00;;;;;;5363080;26;21417;-62
2024/04/10 07:11:46;;;;;;;8.27;2.67;;;13.10;1.00;;;;;;5359721;26;20331;-62
2024/04/10 07:14:17;;;;;;;8.67;2.70;;;13.20;1.00;;;;;;5361193;26;20263;-62
2024/04/10 07:16:45;;;;;;;8.23;2.50;;;13.40;1.00;;;;;;5360474;26;20376;-62
2024/04/10 07:19:16;;;;;;;11.93;2.90;;;13.40;1.00;;;;;;5357110;26;20251;-62
2024/04/10 07:21:48;;;;;;;8.53;2.50;;;13.60;1.00;;;;;;5357330;26;20298;-61
2024/04/10 07:24:18;;;;;;;9.20;3.10;;;13.60;99.90;;;;;;5359737;26;20264;-62
2024/04/10 07:26:46;;;;;;;6.27;2.70;;;13.80;1.00;;;;;;5360990;26;20771;-62
2024/04/10 07:29:16;;;;;;;10.63;3.00;;;13.90;1.00;;;;;;5356180;26;20299;-63
2024/04/10 07:31:43;;;;;;;6.10;2.37;;;13.90;1.00;;;;;;5358252;26;20275;-62
2024/04/10 07:34:14;;;;;;;6.13;2.70;;;14.00;1.00;;;;;;5361395;26;20263;-62
2024/04/10 07:36:42;;;;;;;8.70;2.93;;;14.20;99.90;;;;;;5355230;26;20339;-62
2024/04/10 07:39:19;;;;;;;12.87;2.70;;;14.20;1.00;;;;;;5355953;26;20262;-62
2024/04/10 07:41:46;;;;;;;12.13;2.80;;;14.30;1.00;;;;;;5362500;26;20236;-62
2024/04/10 07:44:17;;;;;;;11.00;2.30;;;14.40;99.90;;;;;;5354159;26;20252;-62
2024/04/10 07:46:45;;;;;;;10.03;3.00;;;14.40;1.00;;;;;;5354378;26;20261;-63
2024/04/10 07:49:17;;;;;;;9.30;2.70;;;14.40;1.00;;;;;;5361517;26;20269;-62
2024/04/10 07:51:46;;;;;;;10.40;2.93;;;14.50;1.00;;;;;;5357276;26;20272;-62
2024/04/10 07:54:19;;;;;;;7.83;2.77;;;14.60;1.00;;;;;;5361483;26;20257;-62
2024/04/10 07:56:46;;;;;;;11.87;2.70;;;14.70;1.00;;;;;;5357415;26;20237;-62
2024/04/10 07:59:17;;;;;;;7.40;2.23;;;14.80;1.00;;;;;;5368260;26;20328;-62
2024/04/10 08:01:44;;;;;;;8.47;2.20;;;15.00;21.80;;;;;;5361101;26;20662;-62
2024/04/10 08:04:15;;;;;;;7.70;2.40;;;15.40;1.00;;;;;;5358212;26;20296;-62
2024/04/10 08:06:42;;;;;;;5.77;2.47;;;15.60;1.00;;;;;;5351595;26;20633;-62
2024/04/10 08:09:12;;;;;;;12.87;2.30;;;15.70;99.90;;;;;;5348785;26;20273;-61
2024/04/10 08:11:44;;;;;;;8.37;2.80;;;16.00;99.90;;;;;;5353653;26;20280;-63
2024/04/10 08:14:16;;;;;;;8.50;2.63;;;16.20;99.90;;;;;;5350949;26;20254;-63
2024/04/10 08:16:44;;;;;;;9.43;2.40;;;16.40;99.90;;;;;;5361445;26;20275;-63
2024/04/10 08:19:14;;;;;;;10.77;2.57;;;16.50;56.80;;;;;;5358605;26;20260;-62
2024/04/10 08:21:42;;;;;;;10.77;1.93;;;16.70;99.90;;;;;;5362962;26;20299;-62
2024/04/10 08:24:12;;;;;;;7.17;2.50;;;16.90;1.00;;;;;;5386955;26;21919;-62
2024/04/10 08:26:42;;;;;;;6.37;2.27;;;17.00;1.00;;;;;;5355755;26;20288;-62
2024/04/10 08:29:13;;;;;;;5.90;2.30;;;17.20;99.90;;;;;;5357739;26;20256;-62
2024/04/10 08:31:40;;;;;;;3.80;2.17;;;17.40;99.90;;;;;;5355710;26;20367;-62
2024/04/10 08:34:10;;;;;;;5.07;2.07;;;17.50;1.00;;;;;;5356611;26;20252;-62
2024/04/10 08:36:39;;;;;;;5.10;2.60;;;17.70;99.90;;;;;;5360462;26;20320;-62
2024/04/10 08:39:09;;;;;;;7.60;2.00;;;17.90;99.90;;;;;;5359390;26;20252;-62
2024/04/10 08:41:39;;;;;;;7.33;2.10;;;17.80;99.90;;;;;;5356895;26;20246;-62
2024/04/10 08:44:12;;;;;;;4.47;2.10;;;18.00;27.40;;;;;;5362341;26;20752;-62
2024/04/10 08:46:42;;;;;;;4.97;1.90;;;18.30;1.00;;;;;;5380465;26;20255;-62
2024/04/10 08:49:15;;;;;;;8.60;2.20;;;18.50;1.00;;;;;;5355341;26;20737;-62
2024/04/10 08:51:44;;;;;;;5.27;2.17;;;18.60;1.00;;;;;;5360602;26;20260;-62
2024/04/10 08:54:19;;;;;;;4.53;2.03;;;18.50;1.00;;;;;;5355493;26;20663;-62
2024/04/10 08:56:46;;;;;;;4.33;1.87;;;18.40;1.00;;;;;;5365135;26;20350;-62
2024/04/10 08:59:19;;;;;;;3.73;1.83;;;18.30;1.00;;;;;;5364250;26;20264;-62
2024/04/10 09:01:47;;;;;;;9.77;2.33;;;18.40;1.00;;;;;;5354788;26;20326;-62
2024/04/10 09:04:22;;;;;;;8.80;2.47;;;18.40;1.00;;;;;;5388650;26;20637;-62
2024/04/10 09:06:59;;;;;;;4.20;1.90;;;18.30;1.00;;;;;;5362752;26;20680;-62
2024/04/10 09:09:29;;;;;;;5.63;2.10;;;18.50;1.00;;;;;;5350369;26;20255;-62
2024/04/10 09:11:57;;;;;;;3.53;1.80;;;18.60;1.00;;;;;;5354111;26;20232;-62
2024/04/10 09:14:30;;;;;;;4.67;1.90;;;18.20;99.90;;;;;;5360506;26;20247;-62
2024/04/10 09:17:02;;;;;;;3.97;1.83;;;18.00;99.90;;;;;;5355147;26;20252;-62
2024/04/10 09:19:32;;;;;;;5.63;1.67;;;18.30;99.90;;;;;;5352729;26;20253;-62
2024/04/10 09:22:00;;;;;;;4.57;1.80;;;18.70;99.90;;;;;;5358449;26;20655;-62
2024/04/10 09:24:32;;;;;;;3.77;1.70;;;18.80;99.90;;;;;;5353808;26;20283;-62
2024/04/10 09:26:59;;;;;;;6.60;1.70;;;18.80;99.90;;;;;;5355674;26;20264;-62
2024/04/10 09:29:32;;;;;;;2.87;1.60;;;18.70;99.90;;;;;;5355780;26;20346;-62
2024/04/10 09:32:04;;;;;;;4.27;1.60;;;18.40;34.80;;;;;;5383069;26;20255;-62
2024/04/10 09:34:37;;;;;;;4.53;1.80;;;18.20;57.70;;;;;;5358937;26;20287;-62
2024/04/10 09:37:06;;;;;;;3.07;1.50;;;18.20;20.20;;;;;;5391194;26;20256;-63
2024/04/10 09:39:37;;;;;;;1.60;1.40;;;18.60;46.60;;;;;;5357328;26;20283;-62
2024/04/10 09:42:11;;;;;;;4.83;1.73;;;18.80;25.40;;;;;;5366061;26;21107;-62
2024/04/10 09:44:45;;;;;;;4.07;1.60;;;19.10;19.00;;;;;;5358099;26;20303;-62
2024/04/10 09:47:16;;;;;;;3.67;1.40;;;19.40;1.00;;;;;;5363009;26;20255;-63
2024/04/10 09:49:52;;;;;;;3.53;1.13;;;19.60;1.00;;;;;;5360222;26;20270;-62
2024/04/10 09:52:20;;;;;;;2.80;1.10;;;19.90;1.00;;;;;;5359377;26;20310;-62
2024/04/10 09:54:51;;;;;;;2.13;1.10;;;20.00;1.00;;;;;;5353553;26;20264;-63
2024/04/10 09:57:20;;;;;;;1.30;1.10;;;20.30;1.00;;;;;;5352466;26;20759;-63
2024/04/10 09:59:53;;;;;;;1.53;1.10;;;20.40;1.00;;;;;;5360046;26;20232;-63
2024/04/10 10:02:21;;;;;;;2.38;1.20;;;20.30;1.00;;;;;;5357173;26;20298;-63
2024/04/10 10:04:51;;;;;;;2.22;1.05;;;20.60;1.00;;;;;;5355106;26;20253;-63
2024/04/10 10:07:22;;;;;;;2.92;1.20;;;20.80;1.00;;;;;;5357483;26;20262;-63
2024/04/10 10:09:53;;;;;;;1.90;1.13;;;21.00;1.00;;;;;;5361308;26;20258;-62
2024/04/10 10:12:27;;;;;;;2.90;1.17;;;21.30;1.00;;;;;;5355160;26;20303;-63
2024/04/10 10:15:14;;;;;;;1.65;1.10;;;21.50;1.00;;;;;;5396399;26;20298;-62
2024/04/10 10:17:52;;;;;;;1.88;1.23;;;21.80;1.00;;;;;;5363929;26;20601;-63
2024/04/10 10:20:33;;;;;;;2.10;1.13;;;22.30;1.00;;;;;;5355798;26;20256;-63
2024/04/10 10:23:02;;;;;;;3.33;1.40;;;22.90;1.00;;;;;;5358879;26;20366;-62
2024/04/10 10:25:34;;;;;;;2.13;1.05;;;23.00;1.00;;;;;;5363167;26;20299;-60
2024/04/10 10:28:06;;;;;;;1.50;1.13;;;23.00;1.00;;;;;;5355391;26;20256;-62
2024/04/10 10:30:39;;;;;;;1.58;1.20;;;23.30;1.00;;;;;;5390496;26;20286;-62
2024/04/10 10:33:12;;;;;;;3.40;1.30;;;23.10;1.00;;;;;;5353141;26;20263;-62
2024/04/10 10:35:43;;;;;;;1.45;1.35;;;23.20;1.00;;;;;;5358381;26;20277;-62
2024/04/10 10:38:11;;;;;;;2.35;1.20;;;23.40;1.00;;;;;;5361229;26;20294;-62
2024/04/10 10:40:41;;;;;;;2.40;1.42;;;23.10;1.00;;;;;;5356645;26;20254;-62
2024/04/10 10:43:10;;;;;;;2.83;1.17;;;22.80;1.00;;;;;;5365341;26;20372;-62
2024/04/10 10:45:45;;;;;;;2.08;1.15;;;22.70;1.00;;;;;;5361083;26;20276;-62
2024/04/10 10:48:15;;;;;;;2.72;1.48;;;22.80;1.00;;;;;;5360074;26;20287;-62
2024/04/10 10:50:46;;;;;;;3.47;1.50;;;23.40;1.00;;;;;;5363491;26;20270;-62
2024/04/10 10:53:15;;;;;;;2.45;1.15;;;23.60;1.00;;;;;;5360291;26;20249;-62
2024/04/10 10:55:53;;;;;;;2.65;1.40;;;23.20;1.00;;;;;;5360916;26;20269;-62
2024/04/10 10:58:22;;;;;;;2.55;1.30;;;23.20;1.00;;;;;;5349243;26;20288;-62
2024/04/10 11:00:55;;;;;;;3.92;1.40;;;23.70;1.00;;;;;;5359663;26;20301;-62
2024/04/10 11:03:25;;;;;;;2.73;1.47;;;23.30;1.00;;;;;;5361114;26;20362;-62
2024/04/10 11:06:09;;;;;;;2.95;1.38;;;22.20;1.00;;;;;;5360714;26;20237;-62
2024/04/10 11:08:38;;;;;;;4.00;1.60;;;22.40;1.00;;;;;;5349240;26;20335;-62
2024/04/10 11:11:09;;;;;;;3.53;1.40;;;23.00;1.00;;;;;;5354182;26;21194;-62
2024/04/10 11:13:47;;;;;;;5.32;1.80;;;23.90;1.00;;;;;;5358674;26;21410;-62
2024/04/10 11:16:31;;;;;;;1.83;1.50;;;24.30;1.00;;;;;;5354974;26;20264;-62
2024/04/10 11:19:00;;;;;;;2.53;1.58;;;23.80;1.00;;;;;;5368592;26;20298;-62
2024/04/10 11:21:31;;;;;;;2.77;1.40;;;23.60;1.00;;;;;;5355224;26;20271;-62
2024/04/10 11:23:58;;;;;;;6.47;1.58;;;23.60;1.00;;;;;;5354338;26;20239;-62
2024/04/10 11:26:28;;;;;;;4.30;1.37;;;23.60;1.00;;;;;;5363176;26;20369;-62
2024/04/10 11:28:57;;;;;;;5.30;1.60;;;23.70;1.00;;;;;;5363585;26;20259;-62
2024/04/10 11:31:30;;;;;;;4.80;1.90;;;22.60;1.00;;;;;;5360302;26;20788;-62
2024/04/10 11:33:58;;;;;;;3.13;1.70;;;22.90;1.00;;;;;;5356691;26;20301;-62
2024/04/10 11:36:29;;;;;;;3.60;1.80;;;23.80;1.00;;;;;;5382196;26;20268;-62
2024/04/10 11:38:56;;;;;;;1.93;1.50;;;23.40;1.00;;;;;;5359391;26;20654;-61
2024/04/10 11:41:27;;;;;;;4.40;1.63;;;23.00;1.00;;;;;;5354413;26;20243;-62
2024/04/10 11:43:55;;;;;;;3.50;1.53;;;23.40;1.00;;;;;;5357216;26;20677;-62
2024/04/10 11:46:25;;;;;;;3.83;1.40;;;23.20;1.00;;;;;;5356579;26;21452;-62
2024/04/10 11:48:55;;;;;;;2.87;1.47;;;23.10;1.00;;;;;;5368401;26;20754;-62
2024/04/10 11:51:25;;;;;;;2.10;1.67;;;23.40;1.00;;;;;;5417031;26;20291;-62
2024/04/10 11:53:53;;;;;;;3.60;1.50;;;23.90;1.00;;;;;;5359091;26;20275;-62
2024/04/10 11:56:24;;;;;;;2.43;1.70;;;22.90;1.00;;;;;;5420117;26;20608;-62
2024/04/10 11:58:52;;;;;;;3.30;1.60;;;22.40;1.00;;;;;;5366348;26;20659;-62
2024/04/10 12:01:22;;;;;;;4.00;1.50;;;21.90;1.00;;;;;;5363832;26;20283;-62
2024/04/10 12:03:49;;;;;;;4.50;1.80;;;22.60;1.00;;;;;;5360939;26;20251;-61
2024/04/10 12:06:23;;;;;;;4.67;1.50;;;21.40;1.00;;;;;;5356422;26;20364;-62
2024/04/10 12:08:50;;;;;;;2.40;1.30;;;21.50;1.00;;;;;;5366380;26;20238;-61
2024/04/10 12:11:21;;;;;;;2.40;1.50;;;22.30;1.00;;;;;;5356480;26;20241;-62
2024/04/10 12:13:48;;;;;;;4.70;1.57;;;22.60;1.00;;;;;;5411122;26;20383;-62
2024/04/10 12:16:18;;;;;;;3.03;1.70;;;21.50;1.00;;;;;;5369186;26;21733;-62
2024/04/10 12:18:46;;;;;;;6.63;1.80;;;20.50;1.00;;;;;;5356575;26;20255;-61
2024/04/10 12:21:17;;;;;;;4.83;1.67;;;19.70;1.00;;;;;;5362628;26;20958;-61
2024/04/10 12:23:47;;;;;;;6.50;1.70;;;19.70;1.00;;;;;;5360197;26;20317;-61
2024/04/10 12:26:18;;;;;;;3.53;2.00;;;19.80;1.00;;;;;;5351883;26;20330;-61
2024/04/10 12:28:45;;;;;;;4.77;1.80;;;20.10;1.00;;;;;;5390945;26;20330;-62
2024/04/10 12:31:15;;;;;;;5.13;1.90;;;19.80;1.00;;;;;;5360238;26;20255;-62
2024/04/10 12:33:43;;;;;;;6.17;1.90;;;20.00;1.00;;;;;;5358598;26;20306;-61
2024/04/10 12:39:04;;;;;;;4.90;1.80;;;20.00;1.00;;;;;;5361486;26;20235;-61
2024/04/10 12:41:35;;;;;;;2.83;1.60;;;20.90;1.00;;;;;;5355129;26;20287;-62
2024/04/10 12:44:03;;;;;;;5.40;1.80;;;21.30;1.00;;;;;;5355724;26;20295;-62
2024/04/10 12:46:39;;;;;;;2.90;1.70;;;20.70;1.00;;;;;;5355733;26;20260;-61
2024/04/10 12:49:06;;;;;;;4.20;1.47;;;20.00;1.00;;;;;;5367617;26;20298;-61
2024/04/10 12:51:37;;;;;;;5.50;1.87;;;20.30;1.00;;;;;;5365210;26;20359;-61
2024/04/10 12:54:07;;;;;;;4.60;1.70;;;19.80;1.00;;;;;;5362776;26;20273;-61
2024/04/10 12:56:37;;;;;;;4.63;1.80;;;19.60;1.00;;;;;;5367861;26;20251;-62
2024/04/10 12:59:05;;;;;;;7.23;1.80;;;19.70;1.00;;;;;;5356705;26;20294;-61
2024/04/10 13:01:35;;;;;;;3.13;1.50;;;19.70;1.00;;;;;;5358699;26;20311;-61
2024/04/10 13:04:05;;;;;;;4.50;1.60;;;19.10;1.00;;;;;;5366780;26;20259;-61
2024/04/10 13:06:35;;;;;;;5.67;1.60;;;18.70;1.00;;;;;;5406343;26;20296;-61
2024/04/10 13:09:08;;;;;;;4.30;1.73;;;18.40;1.00;;;;;;5361615;26;20730;-61
2024/04/10 13:11:39;;;;;;;5.73;1.70;;;18.60;1.00;;;;;;5358320;26;21290;-62
2024/04/10 13:14:06;;;;;;;4.43;1.90;;;18.60;1.00;;;;;;5355078;26;20348;-61
2024/04/10 13:16:37;;;;;;;7.60;1.77;;;18.70;1.00;;;;;;5366154;26;21656;-62
2024/04/10 13:19:04;;;;;;;6.10;2.10;;;18.70;1.00;;;;;;5354182;26;21127;-62
2024/04/10 13:21:38;;;;;;;4.10;1.50;;;18.70;1.00;;;;;;5357067;26;20303;-62
2024/04/10 13:24:08;;;;;;;6.37;2.10;;;18.90;1.00;;;;;;5363085;26;20574;-61
2024/04/10 13:26:39;;;;;;;3.40;1.50;;;19.20;1.00;;;;;;5357650;26;20240;-61
2024/04/10 13:29:07;;;;;;;5.43;1.70;;;19.00;1.00;;;;;;5353450;26;20251;-61